Time;durP1;ratioP1;P1;durP2;ratioP2;P2;SDS_P1;SDS_P2;PMS_P1;PMS_P2;Temp;Humidity;BMP_temperature;BMP_pressure;BME280_temperature;BME280_humidity;BME280_pressure;Samples;Min_cycle;Max_cycle;Signal;HPM_P1;HPM_P2
2022/09/06 00:00:42;;;;;;;4.65;3.37;;;;;;;10.81;70.75;100460.52;1762956;79;21552;-59
2022/09/06 00:03:09;;;;;;;5.35;3.50;;;;;;;10.79;70.53;100458.36;1757942;80;21317;-59
2022/09/06 00:05:37;;;;;;;5.70;3.20;;;;;;;10.75;69.89;100462.00;1754272;79;21445;-61
2022/09/06 00:08:04;;;;;;;5.37;3.52;;;;;;;10.69;69.61;100465.67;1765732;79;21510;-60
2022/09/06 00:10:31;;;;;;;2.58;2.35;;;;;;;10.64;69.71;100465.41;1756523;80;22090;-60
2022/09/06 00:13:03;;;;;;;4.53;3.20;;;;;;;10.60;69.70;100464.63;1765469;79;21505;-60
2022/09/06 00:15:30;;;;;;;3.77;2.90;;;;;;;10.59;69.38;100459.45;1756827;80;21047;-61
2022/09/06 00:17:58;;;;;;;2.95;2.65;;;;;;;10.55;69.59;100461.73;1762807;79;21565;-60
2022/09/06 00:20:27;;;;;;;4.12;2.75;;;;;;;10.55;70.44;100463.94;1753944;80;21477;-64
2022/09/06 00:22:57;;;;;;;;;;;;;;;10.54;71.13;100463.52;1760616;79;21766;-60
2022/09/06 00:25:24;;;;;;;4.58;2.45;;;;;;;10.51;73.74;100463.63;1765886;79;20814;-61
2022/09/06 00:27:59;;;;;;;3.33;2.50;;;;;;;10.46;72.69;100462.42;1755505;79;21639;-62
2022/09/06 00:30:26;;;;;;;5.08;2.72;;;;;;;10.45;72.58;100462.03;1755261;79;21525;-62
2022/09/06 00:32:53;;;;;;;4.80;3.23;;;;;;;10.44;72.64;100462.92;1755858;79;21568;-62
2022/09/06 00:35:19;;;;;;;3.02;2.47;;;;;;;10.42;72.92;100465.20;1762164;79;21834;-61
2022/09/06 00:37:46;;;;;;;3.90;2.87;;;;;;;10.42;73.04;100465.20;1755894;79;21422;-66
2022/09/06 00:40:13;;;;;;;4.53;2.60;;;;;;;10.40;73.44;100463.08;1761576;79;21526;-62
2022/09/06 00:42:39;;;;;;;2.72;2.37;;;;;;;10.33;73.98;100471.11;1757994;79;21536;-61
2022/09/06 00:45:08;;;;;;;2.85;2.60;;;;;;;10.33;73.94;100470.26;1753659;80;21446;-61
2022/09/06 00:47:35;;;;;;;5.08;2.65;;;;;;;10.31;73.23;100467.67;1770737;80;21788;-61
2022/09/06 00:50:04;;;;;;;5.35;2.62;;;;;;;10.31;73.46;100467.67;1772716;80;21444;-61
2022/09/06 00:52:31;;;;;;;7.37;2.90;;;;;;;10.31;73.24;100476.02;1771224;78;21533;-63
2022/09/06 00:54:58;;;;;;;4.63;3.00;;;;;;;10.29;72.80;100470.77;1763702;79;20996;-61
2022/09/06 00:58:49;;;;;;;4.05;3.12;;;;;;;9.83;77.82;100471.16;1779760;79;22986;-59
2022/09/06 01:01:15;;;;;;;7.72;3.00;;;;;;;10.32;73.16;100471.15;1736265;80;20990;-59
2022/09/06 01:03:42;;;;;;;4.40;2.70;;;;;;;10.33;72.20;100469.80;1727820;81;21848;-59
2022/09/06 01:06:34;;;;;;;4.37;3.27;;;;;;;10.31;72.29;100474.70;1738142;80;21503;-59
2022/09/06 01:09:20;;;;;;;3.02;2.72;;;;;;;10.27;71.74;100473.89;1727376;81;21565;-60
2022/09/06 01:12:12;;;;;;;3.58;2.55;;;;;;;10.24;71.42;100469.17;1738519;81;21495;-61
2022/09/06 01:15:08;;;;;;;4.97;2.30;;;;;;;10.22;71.29;100467.05;1723425;81;21663;-60
2022/09/06 01:17:49;;;;;;;3.45;2.42;;;;;;;10.18;71.39;100471.98;1737502;81;21874;-61
2022/09/06 01:20:46;;;;;;;4.58;2.72;;;;;;;10.12;71.88;100472.55;1734379;81;21562;-60
2022/09/06 01:23:27;;;;;;;4.15;2.60;;;;;;;10.11;72.33;100470.84;1728888;81;21455;-61
2022/09/06 01:26:06;;;;;;;5.33;3.25;;;;;;;10.10;72.95;100474.36;1731162;81;21679;-60
2022/09/06 01:28:45;;;;;;;4.30;3.08;;;;;;;10.09;73.09;100473.94;1734695;80;21589;-62
2022/09/06 01:31:29;;;;;;;3.58;3.02;;;;;;;10.08;74.00;100476.17;1737775;81;21740;-60
2022/09/06 01:34:05;;;;;;;3.05;2.47;;;;;;;10.08;74.38;100476.63;1735692;81;21621;-60
2022/09/06 01:36:50;;;;;;;3.67;3.15;;;;;;;10.07;75.02;100471.81;1735145;81;21467;-60
2022/09/06 01:39:24;;;;;;;3.75;2.80;;;;;;;10.08;74.84;100480.58;1735090;81;21542;-61
2022/09/06 01:41:50;;;;;;;4.22;2.58;;;;;;;10.06;74.51;100480.61;1736490;80;21400;-61
2022/09/06 01:44:17;;;;;;;8.20;3.00;;;;;;;10.04;73.82;100476.28;1734345;81;21864;-60
2022/09/06 01:46:57;;;;;;;2.83;2.47;;;;;;;10.00;73.64;100479.48;1736757;81;21459;-61
2022/09/06 01:49:50;;;;;;;4.35;2.52;;;;;;;10.00;73.54;100482.53;1730597;81;21033;-61
2022/09/06 01:52:36;;;;;;;4.92;2.52;;;;;;;10.01;73.42;100481.18;1733286;81;21494;-60
2022/09/06 01:55:34;;;;;;;4.05;2.27;;;;;;;9.99;73.42;100480.36;1733122;81;21526;-61
2022/09/06 01:58:52;;;;;;;2.92;1.85;;;;;;;9.99;73.76;100485.62;1653353;85;21534;-61
2022/09/06 02:01:45;;;;;;;3.05;2.15;;;;;;;9.97;74.29;100489.20;1644959;84;21579;-61
2022/09/06 02:04:29;;;;;;;3.62;2.30;;;;;;;9.90;74.68;100482.77;1651482;85;21569;-61
2022/09/06 02:07:25;;;;;;;2.85;2.05;;;;;;;9.91;75.39;100484.52;1653810;84;21573;-59
2022/09/06 02:09:59;;;;;;;6.22;2.08;;;;;;;9.90;75.69;100491.11;1650862;84;21786;-62
2022/09/06 02:12:27;;;;;;;2.22;2.02;;;;;;;9.92;75.86;100489.30;1645086;84;21835;-61
2022/09/06 02:15:18;;;;;;;9.00;2.15;;;;;;;9.92;75.36;100492.78;1651103;85;21598;-61
2022/09/06 02:18:00;;;;;;;2.08;1.87;;;;;;;9.89;75.90;100494.66;1654173;85;21026;-61
2022/09/06 02:20:30;;;;;;;4.30;2.58;;;;;;;9.83;76.91;100499.62;1654966;85;21491;-62
2022/09/06 02:22:59;;;;;;;4.37;2.40;;;;;;;9.83;76.55;100509.24;1644914;85;21537;-62
2022/09/06 02:25:33;;;;;;;2.62;2.08;;;;;;;9.79;76.81;100502.35;1654465;84;21798;-62
2022/09/06 02:28:02;;;;;;;2.47;2.25;;;;;;;9.77;76.86;100502.84;1653037;85;21553;-62
2022/09/06 02:30:30;;;;;;;3.27;2.42;;;;;;;9.74;77.09;100503.34;1656819;84;21013;-62
2022/09/06 02:33:00;;;;;;;4.28;2.52;;;;;;;9.74;77.19;100506.42;1645445;86;21540;-62
2022/09/06 02:35:27;;;;;;;4.70;2.62;;;;;;;9.73;77.14;100503.38;1652128;84;21707;-62
2022/09/06 02:37:55;;;;;;;4.42;2.95;;;;;;;9.75;76.93;100506.36;1651765;85;21816;-61
2022/09/06 02:40:22;;;;;;;3.30;2.58;;;;;;;9.78;77.18;100506.75;1655288;85;21549;-62
2022/09/06 02:42:49;;;;;;;2.85;2.50;;;;;;;9.78;76.97;100500.19;1648143;84;21583;-62
2022/09/06 02:45:16;;;;;;;4.28;2.50;;;;;;;9.79;76.97;100507.60;1648436;84;21597;-62
2022/09/06 02:47:43;;;;;;;3.10;2.67;;;;;;;9.77;77.06;100510.27;1648788;85;21102;-62
2022/09/06 02:50:11;;;;;;;2.58;2.37;;;;;;;9.75;77.70;100511.61;1648986;85;21767;-62
2022/09/06 02:52:38;;;;;;;2.90;2.62;;;;;;;9.75;77.23;100508.13;1652297;85;21493;-62
2022/09/06 02:55:06;;;;;;;3.08;2.77;;;;;;;9.75;76.98;100503.73;1648895;85;21588;-62
2022/09/06 02:57:32;;;;;;;5.53;3.00;;;;;;;9.73;76.84;100503.38;1649581;84;22728;-62
2022/09/06 02:59:59;;;;;;;3.57;2.70;;;;;;;9.69;76.69;100507.84;1641842;85;21025;-62
2022/09/06 03:02:26;;;;;;;3.12;2.60;;;;;;;9.61;76.62;100508.49;1646174;85;21808;-61
2022/09/06 03:04:52;;;;;;;2.58;2.27;;;;;;;9.60;76.54;100507.21;1646377;85;21080;-61
2022/09/06 03:07:19;;;;;;;5.47;2.92;;;;;;;9.55;76.64;100509.50;1649765;85;21514;-61
2022/09/06 03:09:46;;;;;;;6.53;2.47;;;;;;;9.49;77.02;100507.47;1645268;85;21499;-60
2022/09/06 03:12:14;;;;;;;2.98;2.45;;;;;;;9.46;77.02;100508.42;1638477;85;20962;-61
2022/09/06 03:14:41;;;;;;;4.37;2.13;;;;;;;9.41;77.19;100510.74;1647248;85;21727;-61
2022/09/06 03:17:07;;;;;;;5.72;2.55;;;;;;;9.38;77.81;100504.24;1646449;84;21553;-61
2022/09/06 03:19:35;;;;;;;2.80;2.20;;;;;;;9.34;78.38;100510.01;1634965;85;21676;-62
2022/09/06 03:22:02;;;;;;;3.33;2.50;;;;;;;9.34;78.71;100510.90;1637606;85;21551;-61
2022/09/06 03:24:28;;;;;;;3.47;2.80;;;;;;;9.33;78.67;100506.98;1644963;85;21136;-61
2022/09/06 03:26:55;;;;;;;3.83;2.58;;;;;;;9.31;79.32;100510.95;1634285;85;21898;-62
2022/09/06 03:29:21;;;;;;;8.00;2.20;;;;;;;9.27;79.41;100513.25;1643561;85;21500;-62
2022/09/06 03:31:48;;;;;;;3.33;2.40;;;;;;;9.27;79.58;100518.95;1643649;84;21518;-61
2022/09/06 03:34:14;;;;;;;2.80;2.25;;;;;;;9.32;79.55;100515.33;1648895;85;21491;-62
2022/09/06 03:36:41;;;;;;;2.33;2.12;;;;;;;9.37;80.37;100527.02;1633359;85;21066;-62
2022/09/06 03:39:08;;;;;;;2.85;2.30;;;;;;;9.45;80.35;100527.67;1648703;85;21698;-62
2022/09/06 03:41:34;;;;;;;3.72;2.27;;;;;;;9.49;79.92;100526.73;1645136;85;21659;-61
2022/09/06 03:44:01;;;;;;;2.83;2.12;;;;;;;9.50;79.68;100523.19;1645319;85;21546;-62
2022/09/06 03:46:29;;;;;;;2.62;2.42;;;;;;;9.52;80.61;100527.95;1642831;85;21108;-65
2022/09/06 03:48:57;;;;;;;2.45;2.25;;;;;;;9.57;80.80;100530.91;1646091;85;21581;-65
2022/09/06 03:51:23;;;;;;;2.35;2.00;;;;;;;9.57;81.01;100537.05;1648011;85;21802;-64
2022/09/06 03:53:50;;;;;;;5.20;2.22;;;;;;;9.58;80.96;100533.50;1646716;86;21036;-61
2022/09/06 03:56:16;;;;;;;2.40;2.10;;;;;;;9.61;80.55;100541.31;1643287;85;21006;-62
2022/09/06 03:58:43;;;;;;;2.22;2.02;;;;;;;9.63;80.67;100538.66;1646456;86;21530;-62
2022/09/06 04:01:10;;;;;;;2.37;2.15;;;;;;;9.67;80.98;100538.53;1647361;86;21565;-62
2022/09/06 04:03:37;;;;;;;3.50;2.15;;;;;;;9.73;80.74;100546.70;1641060;86;22184;-62
2022/09/06 04:06:05;;;;;;;2.10;1.90;;;;;;;9.78;81.16;100547.45;1639474;85;21029;-62
2022/09/06 04:08:32;;;;;;;3.20;1.92;;;;;;;9.83;80.80;100553.47;1642653;86;21176;-62
2022/09/06 04:10:59;;;;;;;3.43;2.40;;;;;;;9.86;80.95;100551.20;1645123;85;21521;-62
2022/09/06 04:13:27;;;;;;;2.52;2.30;;;;;;;9.92;81.00;100553.66;1646890;85;21503;-62
2022/09/06 04:15:53;;;;;;;4.03;2.47;;;;;;;10.00;80.83;100552.16;1646704;86;21875;-62
2022/09/06 04:18:22;;;;;;;2.83;2.50;;;;;;;10.05;80.71;100559.02;1643222;85;21576;-62
2022/09/06 04:20:50;;;;;;;2.87;2.58;;;;;;;10.10;80.53;100545.31;1639057;86;21452;-62
2022/09/06 04:23:16;;;;;;;;;;;;;;;10.18;80.23;100554.77;1643222;86;21434;-61
2022/09/06 04:25:48;;;;;;;2.83;2.20;;;;;;;10.22;82.97;100564.28;1640718;86;20492;-62
2022/09/06 04:28:17;;;;;;;3.40;2.42;;;;;;;10.22;80.74;100559.88;1643920;86;21795;-63
2022/09/06 04:30:45;;;;;;;3.62;2.87;;;;;;;10.25;80.04;100561.12;1642579;86;21534;-62
2022/09/06 04:33:11;;;;;;;5.85;2.90;;;;;;;10.30;80.38;100564.93;1633993;86;21990;-59
2022/09/06 04:35:38;;;;;;;3.62;3.00;;;;;;;10.36;80.45;100563.50;1640241;86;21471;-60
2022/09/06 04:38:04;;;;;;;3.90;3.02;;;;;;;10.44;80.29;100564.61;1643476;85;21586;-59
2022/09/06 04:40:31;;;;;;;6.35;3.08;;;;;;;10.48;80.18;100562.30;1645336;86;21825;-62
2022/09/06 04:42:58;;;;;;;3.22;2.52;;;;;;;10.55;80.05;100561.23;1641925;86;21531;-62
2022/09/06 04:45:24;;;;;;;5.53;3.10;;;;;;;10.64;79.89;100565.34;1642628;86;21477;-62
2022/09/06 04:47:51;;;;;;;5.92;3.75;;;;;;;10.70;80.06;100566.51;1641680;86;21514;-64
2022/09/06 04:50:18;;;;;;;4.22;3.17;;;;;;;10.75;79.66;100567.22;1610912;87;21573;-63
2022/09/06 04:52:46;;;;;;;4.28;3.27;;;;;;;10.89;79.14;100565.52;1600590;88;21813;-63
2022/09/06 04:55:13;;;;;;;4.42;3.10;;;;;;;11.02;78.56;100563.36;1602593;88;21545;-64
2022/09/06 04:57:40;;;;;;;6.17;3.70;;;;;;;11.09;78.29;100561.84;1599004;88;21538;-65
2022/09/06 05:00:08;;;;;;;4.25;3.67;;;;;;;11.19;78.01;100564.16;1607178;86;21625;-63
2022/09/06 05:02:35;;;;;;;3.95;3.00;;;;;;;11.30;77.40;100564.70;1613378;87;21594;-63
2022/09/06 05:05:02;;;;;;;6.67;2.98;;;;;;;11.45;77.02;100562.92;1618800;87;21889;-63
2022/09/06 05:07:30;;;;;;;4.62;3.08;;;;;;;11.59;76.23;100566.42;1615711;85;21637;-63
2022/09/06 05:09:57;;;;;;;3.87;3.35;;;;;;;11.69;75.62;100563.88;1603445;88;21593;-66
2022/09/06 05:12:24;;;;;;;4.40;3.40;;;;;;;11.79;75.71;100556.56;1592832;88;21539;-66
2022/09/06 05:14:50;;;;;;;4.72;3.50;;;;;;;11.90;74.63;100560.62;1590354;88;21127;-65
2022/09/06 05:17:17;;;;;;;3.87;3.22;;;;;;;12.00;74.36;100561.59;1591203;89;21813;-65
2022/09/06 05:19:43;;;;;;;6.17;3.27;;;;;;;12.09;74.32;100556.44;1584264;87;21504;-65
2022/09/06 05:22:11;;;;;;;4.03;2.95;;;;;;;12.19;73.52;100558.33;1591688;88;21534;-65
2022/09/06 05:24:37;;;;;;;4.90;3.45;;;;;;;12.27;73.50;100566.35;1588476;88;21385;-64
2022/09/06 05:27:06;;;;;;;4.58;3.30;;;;;;;12.35;73.25;100565.23;1590485;88;21031;-64
2022/09/06 05:29:32;;;;;;;4.05;3.10;;;;;;;12.49;72.29;100570.88;1612841;88;21887;-63
2022/09/06 05:31:59;;;;;;;3.87;3.05;;;;;;;12.61;71.41;100565.61;1594068;88;21625;-65
2022/09/06 05:34:26;;;;;;;4.75;3.40;;;;;;;12.70;70.48;100560.47;1643729;85;21459;-64
2022/09/06 05:36:52;;;;;;;5.95;3.33;;;;;;;12.75;70.66;100560.70;1636163;85;21605;-67
2022/09/06 05:39:20;;;;;;;4.72;3.33;;;;;;;12.80;70.01;100549.95;1647929;85;21617;-67
2022/09/06 05:41:47;;;;;;;6.22;3.00;;;;;;;12.91;68.81;100546.45;1647002;85;21829;-69
2022/09/06 05:44:14;;;;;;;5.70;3.55;;;;;;;12.99;68.20;100549.64;1646993;86;21044;-65
2022/09/06 05:46:43;;;;;;;4.40;3.15;;;;;;;13.07;67.86;100548.50;1643536;86;21014;-65
2022/09/06 05:49:11;;;;;;;4.58;3.60;;;;;;;13.14;67.42;100545.55;1647610;85;21525;-65
2022/09/06 05:51:39;;;;;;;5.37;3.55;;;;;;;13.21;67.35;100544.88;1644902;85;21467;-65
2022/09/06 05:54:06;;;;;;;4.58;3.55;;;;;;;13.32;66.49;100545.34;1637084;85;21919;-65
2022/09/06 05:56:33;;;;;;;7.83;3.75;;;;;;;13.40;66.05;100550.31;1645825;85;21518;-67
2022/09/06 05:59:00;;;;;;;5.87;3.90;;;;;;;13.44;65.85;100550.11;1643162;85;21462;-67
2022/09/06 06:01:28;;;;;;;5.72;3.42;;;;;;;13.56;65.83;100554.50;1648829;84;21548;-66
2022/09/06 06:04:01;;;;;;;5.75;3.67;;;;;;;13.68;65.34;100549.20;1645794;85;21133;-68
2022/09/06 06:06:30;;;;;;;7.42;3.05;;;;;;;13.81;64.17;100553.91;1652555;84;21851;-68
2022/09/06 06:08:56;;;;;;;6.37;2.90;;;;;;;13.88;63.01;100556.28;1649396;85;21585;-68
2022/09/06 06:11:24;;;;;;;2.92;2.62;;;;;;;13.93;62.70;100555.16;1651927;84;21562;-70
2022/09/06 06:13:51;;;;;;;;;;;;;;;13.95;61.63;100554.63;1648195;84;21583;-68
2022/09/06 06:16:20;;;;;;;5.10;2.90;;;;;;;13.98;60.41;100554.98;1654328;84;20525;-67
2022/09/06 06:18:47;;;;;;;6.17;2.60;;;;;;;14.03;61.65;100552.98;1648801;85;21811;-65
2022/09/06 06:21:19;;;;;;;3.67;3.00;;;;;;;14.13;60.91;100553.47;1651525;84;21560;-66
2022/09/06 06:23:48;;;;;;;3.05;2.72;;;;;;;14.29;60.37;100552.33;1644538;85;21488;-68
2022/09/06 06:26:14;;;;;;;4.75;3.00;;;;;;;14.41;59.40;100553.13;1650330;84;21037;-66
2022/09/06 06:28:41;;;;;;;4.80;2.83;;;;;;;14.49;58.66;100552.78;1653978;85;21016;-65
2022/09/06 06:31:09;;;;;;;5.00;2.95;;;;;;;14.60;58.34;100558.02;1643910;85;21809;-67
2022/09/06 06:33:36;;;;;;;4.05;2.70;;;;;;;14.74;57.64;100560.50;1655811;85;21502;-66
2022/09/06 06:36:20;;;;;;;4.42;2.60;;;;;;;14.81;56.97;100564.59;1650029;85;21632;-66
2022/09/06 06:38:48;;;;;;;3.35;2.70;;;;;;;14.84;56.40;100564.91;1652854;85;21485;-64
2022/09/06 06:41:17;;;;;;;2.17;1.95;;;;;;;14.88;55.71;100560.73;1646509;85;21430;-65
2022/09/06 06:43:44;;;;;;;3.12;2.22;;;;;;;14.87;55.46;100568.27;1650580;85;21856;-64
2022/09/06 06:46:15;;;;;;;3.15;2.40;;;;;;;14.92;55.82;100560.13;1649064;85;21564;-64
2022/09/06 06:48:44;;;;;;;3.98;2.30;;;;;;;14.93;55.73;100563.16;1647172;85;21053;-66
2022/09/06 06:51:18;;;;;;;2.70;1.82;;;;;;;15.01;55.22;100564.98;1654910;84;21096;-67
2022/09/06 06:53:50;;;;;;;3.62;2.50;;;;;;;15.07;55.14;100560.73;1650391;84;21021;-67
2022/09/06 06:56:26;;;;;;;3.72;2.40;;;;;;;15.12;54.62;100568.45;1649392;85;21822;-67
2022/09/06 06:58:56;;;;;;;2.98;2.27;;;;;;;15.15;54.41;100564.35;1636738;84;21587;-66
2022/09/06 07:01:24;;;;;;;2.98;2.40;;;;;;;15.17;54.06;100565.98;1631847;85;21490;-66
2022/09/06 07:03:50;;;;;;;3.77;2.22;;;;;;;15.24;54.19;100567.01;1637352;85;21530;-66
2022/09/06 07:06:17;;;;;;;3.17;2.17;;;;;;;15.31;53.45;100566.67;1647243;85;21419;-66
2022/09/06 07:08:44;;;;;;;2.87;2.33;;;;;;;15.33;53.05;100565.25;1647836;85;21808;-66
2022/09/06 07:11:13;;;;;;;2.70;2.20;;;;;;;15.40;53.05;100573.30;1643897;85;21495;-66
2022/09/06 07:13:40;;;;;;;5.30;2.10;;;;;;;15.46;52.81;100568.17;1634032;85;21526;-66
2022/09/06 07:16:12;;;;;;;1.92;1.50;;;;;;;15.54;52.18;100560.73;1649941;85;21498;-66
2022/09/06 07:18:41;;;;;;;1.60;1.50;;;;;;;15.64;51.88;100556.68;1638231;85;21142;-67
2022/09/06 07:21:17;;;;;;;3.47;1.98;;;;;;;15.68;50.80;100561.36;1640047;85;21968;-69
2022/09/06 07:23:43;;;;;;;1.80;1.12;;;;;;;15.79;50.39;100568.83;1646733;85;21505;-69
2022/09/06 07:26:19;;;;;;;5.90;1.23;;;;;;;15.85;49.66;100565.86;1643524;85;21507;-71
2022/09/06 07:28:45;;;;;;;5.47;1.60;;;;;;;15.94;49.24;100562.75;1637722;84;22039;-70
2022/09/06 07:31:14;;;;;;;1.60;1.20;;;;;;;16.08;48.64;100558.06;1640709;85;21444;-67
2022/09/06 07:33:41;;;;;;;2.05;1.30;;;;;;;16.17;48.44;100556.73;1647447;85;21895;-67
2022/09/06 07:36:08;;;;;;;1.50;1.40;;;;;;;16.26;47.96;100558.44;1642910;85;21582;-67
2022/09/06 07:38:36;;;;;;;2.08;1.30;;;;;;;16.38;47.10;100554.76;1642812;85;21491;-67
2022/09/06 07:41:05;;;;;;;3.30;1.27;;;;;;;16.40;46.54;100560.36;1646651;85;21616;-64
2022/09/06 07:43:32;;;;;;;3.65;1.10;;;;;;;16.47;46.43;100556.94;1639793;84;21567;-68
2022/09/06 07:46:14;;;;;;;1.10;0.95;;;;;;;16.53;46.01;100554.80;1642577;85;21994;-67
2022/09/06 07:48:42;;;;;;;2.70;1.17;;;;;;;16.60;45.38;100557.99;1642015;85;21655;-70
2022/09/06 07:51:10;;;;;;;;;;;;;;;16.65;44.77;100550.65;1646202;85;21542;-70
2022/09/06 07:53:38;;;;;;;0.80;0.60;;;;;;;16.64;42.18;100546.27;1655616;84;20447;-67
2022/09/06 07:56:05;;;;;;;;;;;;;;;16.65;44.56;100547.11;1654347;84;21593;-68
2022/09/06 07:58:32;;;;;;;0.70;0.65;;;;;;;16.69;41.63;100548.21;1641736;85;21850;-69
2022/09/06 08:01:34;;;;;;;1.42;0.40;;;;;;;16.70;44.25;100548.58;1641906;86;21158;-67
2022/09/06 08:04:08;;;;;;;1.62;0.40;;;;;;;16.71;43.58;100550.31;1631872;85;21645;-68
2022/09/06 08:06:38;;;;;;;0.75;0.70;;;;;;;16.78;43.03;100555.28;1643016;86;21614;-68
2022/09/06 08:09:08;;;;;;;1.65;0.70;;;;;;;16.73;42.85;100543.59;1642035;86;21459;-68
2022/09/06 08:11:36;;;;;;;1.07;0.62;;;;;;;16.74;43.04;100548.83;1639758;86;21819;-68
2022/09/06 08:14:05;;;;;;;1.02;0.70;;;;;;;16.83;42.55;100540.00;1640025;86;21556;-68
2022/09/06 08:16:33;;;;;;;0.45;0.40;;;;;;;16.84;42.02;100542.58;1645779;86;21530;-68
2022/09/06 08:19:03;;;;;;;2.55;0.60;;;;;;;16.89;41.89;100543.16;1639524;86;21014;-68
2022/09/06 08:21:31;;;;;;;1.57;0.50;;;;;;;16.97;42.05;100548.52;1644978;86;21575;-67
2022/09/06 08:24:00;;;;;;;0.70;0.70;;;;;;;17.10;41.87;100533.61;1643427;86;21785;-68
2022/09/06 08:26:27;;;;;;;2.27;0.40;;;;;;;17.13;41.35;100539.62;1636856;85;21440;-67
2022/09/06 08:28:59;;;;;;;2.45;0.72;;;;;;;17.17;41.52;100543.44;1642987;86;21064;-68
2022/09/06 08:31:28;;;;;;;0.70;0.65;;;;;;;17.19;40.95;100536.24;1644241;85;21560;-69
2022/09/06 08:33:57;;;;;;;1.00;0.65;;;;;;;17.19;41.21;100536.24;1643613;86;21628;-69
2022/09/06 08:36:26;;;;;;;0.85;0.62;;;;;;;17.21;41.09;100527.70;1619587;86;22140;-69
2022/09/06 08:38:52;;;;;;;0.90;0.60;;;;;;;17.26;40.74;100529.64;1642972;86;21545;-69
2022/09/06 08:41:26;;;;;;;1.35;0.70;;;;;;;17.30;40.47;100521.39;1641114;86;21061;-68
2022/09/06 08:44:05;;;;;;;1.65;1.00;;;;;;;17.36;40.25;100520.67;1644077;86;21669;-68
2022/09/06 08:46:58;;;;;;;1.85;0.85;;;;;;;17.42;40.57;100522.52;1640033;86;21705;-68
2022/09/06 08:49:29;;;;;;;3.52;1.20;;;;;;;17.40;40.42;100516.88;1635131;86;21810;-72
2022/09/06 08:52:01;;;;;;;1.37;1.20;;;;;;;17.33;40.25;100521.72;1643371;85;21546;-73
2022/09/06 08:54:36;;;;;;;1.35;1.02;;;;;;;17.33;40.31;100521.72;1643352;86;21629;-72
2022/09/06 08:57:30;;;;;;;1.22;1.10;;;;;;;17.41;39.81;100518.61;1640976;86;21511;-71
2022/09/06 09:00:01;;;;;;;1.17;0.98;;;;;;;17.45;39.66;100515.67;1645509;84;21541;-71
2022/09/06 09:02:29;;;;;;;1.25;1.15;;;;;;;17.51;39.72;100511.33;1643277;85;21898;-69
2022/09/06 09:05:03;;;;;;;1.10;0.90;;;;;;;17.61;39.68;100510.80;1656593;85;21611;-68
2022/09/06 09:07:44;;;;;;;3.02;1.00;;;;;;;17.69;40.08;100511.22;1656483;84;21615;-69
2022/09/06 09:10:27;;;;;;;1.00;0.80;;;;;;;17.62;39.78;100508.53;1648865;85;21558;-69
2022/09/06 09:12:53;;;;;;;1.00;0.90;;;;;;;17.59;39.69;100502.05;1651061;85;21539;-68
2022/09/06 09:15:20;;;;;;;1.30;0.90;;;;;;;17.57;39.40;100499.48;1658177;84;21818;-70
2022/09/06 09:17:49;;;;;;;1.20;1.10;;;;;;;17.52;39.19;100500.24;1656689;85;21499;-69
2022/09/06 09:20:16;;;;;;;;;;;;;;;17.64;39.14;100490.20;1660134;85;21017;-70
2022/09/06 09:22:43;;;;;;;0.70;0.70;;;;;;;17.86;37.11;100487.16;1647729;85;20520;-69
2022/09/06 09:25:14;;;;;;;0.78;0.60;;;;;;;17.97;38.58;100490.52;1654877;85;21628;-70
2022/09/06 09:27:41;;;;;;;0.72;0.70;;;;;;;18.04;37.74;100489.66;1653008;85;21745;-69
2022/09/06 09:30:09;;;;;;;1.00;0.90;;;;;;;18.13;38.04;100495.75;1651075;84;21565;-69
2022/09/06 09:32:41;;;;;;;1.30;1.22;;;;;;;18.11;37.67;100485.69;1659759;84;21526;-73
2022/09/06 09:35:32;;;;;;;1.32;1.22;;;;;;;18.04;37.74;100487.00;1648907;84;21647;-71
2022/09/06 09:38:04;;;;;;;3.22;1.50;;;;;;;17.92;37.69;100489.09;1642185;84;21554;-71
2022/09/06 09:40:41;;;;;;;1.22;1.12;;;;;;;17.97;38.11;100490.52;1659933;85;21852;-68
2022/09/06 09:43:17;;;;;;;2.47;1.40;;;;;;;18.06;38.08;100483.31;1649516;84;21601;-68
2022/09/06 09:45:44;;;;;;;4.28;1.50;;;;;;;18.09;37.74;100487.58;1630234;84;21505;-71
2022/09/06 09:48:25;;;;;;;4.87;1.30;;;;;;;18.07;37.81;100483.68;1653560;84;21603;-71
2022/09/06 09:50:54;;;;;;;1.82;1.50;;;;;;;18.06;37.49;100490.42;1654871;84;21163;-69
2022/09/06 09:53:22;;;;;;;2.30;1.35;;;;;;;18.06;37.37;100487.76;1651902;84;21996;-69
2022/09/06 09:56:10;;;;;;;2.83;1.50;;;;;;;18.07;37.43;100481.50;1659688;84;21656;-69
2022/09/06 09:58:37;;;;;;;1.77;1.30;;;;;;;18.11;37.45;100481.69;1716683;81;21560;-68
2022/09/06 10:01:26;;;;;;;1.17;1.07;;;;;;;18.18;37.42;100482.19;1641783;83;21043;-68
2022/09/06 10:04:10;;;;;;;1.65;1.20;;;;;;;18.30;37.30;100488.07;1707072;81;21036;-68
2022/09/06 10:06:36;;;;;;;1.20;1.10;;;;;;;18.40;36.95;100494.55;1711851;81;21841;-69
2022/09/06 10:09:23;;;;;;;4.05;1.42;;;;;;;18.29;36.40;100485.89;1708197;81;21616;-69
2022/09/06 10:11:56;;;;;;;1.70;1.37;;;;;;;18.25;36.82;100480.83;1714265;81;21588;-69
2022/09/06 10:14:30;;;;;;;1.85;1.40;;;;;;;18.20;36.78;100484.28;1702968;82;21019;-69
2022/09/06 10:16:57;;;;;;;2.30;1.60;;;;;;;18.16;37.06;100486.72;1706411;81;21584;-68
2022/09/06 10:19:36;;;;;;;;;;;;;;;18.08;37.27;100483.20;1719086;81;21798;-69
2022/09/06 10:22:20;;;;;;;1.35;1.22;;;;;;;17.97;36.85;100486.53;1710949;81;20208;-71
2022/09/06 10:25:27;;;;;;;1.92;1.80;;;;;;;17.83;37.60;100483.31;1708549;81;21067;-70
2022/09/06 10:28:05;;;;;;;3.20;1.85;;;;;;;17.75;37.67;100473.62;1719132;81;21528;-69
2022/09/06 10:30:31;;;;;;;2.67;2.37;;;;;;;17.74;38.07;100472.38;1715717;81;21565;-68
2022/09/06 10:33:08;;;;;;;4.17;2.00;;;;;;;17.72;38.00;100480.44;1721383;81;21688;-68
2022/09/06 10:35:37;;;;;;;7.40;2.62;;;;;;;17.68;37.88;100476.25;1714608;81;21565;-70
2022/09/06 10:38:48;;;;;;;6.92;2.83;;;;;;;17.74;37.99;100473.70;1713759;81;21506;-69
2022/09/06 10:41:35;;;;;;;2.83;2.50;;;;;;;17.76;37.76;100473.98;1715680;81;21525;-70
2022/09/06 10:44:26;;;;;;;3.27;2.80;;;;;;;17.80;37.87;100475.54;1715019;81;21035;-68
2022/09/06 10:47:01;;;;;;;4.08;3.05;;;;;;;17.88;38.13;100475.95;1706896;81;21895;-68
2022/09/06 10:49:28;;;;;;;6.85;3.47;;;;;;;17.93;38.30;100480.14;1707734;81;21410;-67
2022/09/06 10:51:58;;;;;;;4.33;3.62;;;;;;;18.03;37.70;100476.84;1711269;81;21568;-65
2022/09/06 10:54:25;;;;;;;6.30;3.92;;;;;;;18.13;37.26;100476.28;1704251;81;21577;-69
2022/09/06 10:57:19;;;;;;;5.22;4.47;;;;;;;18.22;37.15;100474.39;1709137;81;21554;-69
2022/09/06 10:59:53;;;;;;;7.20;4.90;;;;;;;18.33;37.10;100468.38;1700258;82;21758;-68
2022/09/06 11:02:51;;;;;;;7.97;6.15;;;;;;;18.42;36.93;100464.70;1695977;82;21545;-69
2022/09/06 11:05:23;;;;;;;8.63;5.97;;;;;;;18.38;36.90;100471.63;1696911;82;21797;-68
2022/09/06 11:07:58;;;;;;;7.70;5.78;;;;;;;18.43;37.08;100469.53;1698429;82;21542;-68
2022/09/06 11:10:36;;;;;;;9.65;6.97;;;;;;;18.58;36.92;100466.39;1702377;82;20931;-68
2022/09/06 11:13:11;;;;;;;9.35;6.35;;;;;;;18.62;36.56;100463.42;1696536;82;21742;-68
2022/09/06 11:15:45;;;;;;;8.68;7.12;;;;;;;18.71;36.56;100465.98;1703050;82;21577;-69
2022/09/06 11:18:25;;;;;;;11.00;8.20;;;;;;;18.85;36.13;100456.67;1697593;82;21510;-69
2022/09/06 11:21:24;;;;;;;11.93;9.05;;;;;;;18.91;35.91;100462.09;1702244;82;21080;-67
2022/09/06 11:23:59;;;;;;;16.70;10.82;;;;;;;18.98;35.75;100458.53;1696503;82;21548;-65
2022/09/06 11:26:34;;;;;;;14.78;11.70;;;;;;;19.03;35.34;100461.27;1697155;82;21845;-66
2022/09/06 11:32:42;;;;;;;21.65;14.15;;;;;;;18.99;35.64;100448.27;1840646;76;26212;-68
2022/09/06 11:35:12;;;;;;;21.55;15.00;;;;;;;19.15;35.14;100459.61;1809607;77;21717;-66
2022/09/06 11:37:42;;;;;;;20.82;16.05;;;;;;;19.06;34.88;100452.22;1818483;78;21881;-66
2022/09/06 11:40:24;;;;;;;22.67;16.32;;;;;;;18.97;35.11;100458.17;1777260;77;21632;-67
2022/09/06 11:42:58;;;;;;;25.32;17.52;;;;;;;18.91;35.18;100455.42;1814923;78;21034;-67
2022/09/06 11:45:51;;;;;;;25.15;16.70;;;;;;;18.83;35.22;100460.37;1820009;77;21556;-67
2022/09/06 11:48:32;;;;;;;26.25;17.80;;;;;;;18.72;35.47;100454.84;1794695;77;21524;-66
2022/09/06 11:51:05;;;;;;;31.93;21.48;;;;;;;18.68;35.72;100460.39;1818575;77;21809;-67
2022/09/06 11:53:37;;;;;;;29.30;20.48;;;;;;;18.66;35.75;100454.77;1808015;77;21624;-65